sensor_id;sensor_type;location;lat;lon;timestamp;temperature;humidity
4308;DHT22;2167;53.448;9.984;2022-08-21T00:00:47;15.20;32.80
4308;DHT22;2167;53.448;9.984;2022-08-21T00:03:13;15.30;31.40
4308;DHT22;2167;53.448;9.984;2022-08-21T00:05:43;15.30;30.60
4308;DHT22;2167;53.448;9.984;2022-08-21T00:08:09;15.20;30.20
4308;DHT22;2167;53.448;9.984;2022-08-21T00:10:35;15.30;29.90
4308;DHT22;2167;53.448;9.984;2022-08-21T00:13:03;15.20;29.70
4308;DHT22;2167;53.448;9.984;2022-08-21T00:15:30;15.10;30.10
4308;DHT22;2167;53.448;9.984;2022-08-21T00:17:56;15.10;31.60
4308;DHT22;2167;53.448;9.984;2022-08-21T00:20:22;15.10;32.10
4308;DHT22;2167;53.448;9.984;2022-08-21T00:22:49;15.10;31.20
4308;DHT22;2167;53.448;9.984;2022-08-21T00:25:15;15.10;31.40
4308;DHT22;2167;53.448;9.984;2022-08-21T00:27:42;15.10;30.40
4308;DHT22;2167;53.448;9.984;2022-08-21T00:30:09;15.20;30.50
4308;DHT22;2167;53.448;9.984;2022-08-21T00:32:39;15.10;30.10
4308;DHT22;2167;53.448;9.984;2022-08-21T00:35:08;15.10;30.90
4308;DHT22;2167;53.448;9.984;2022-08-21T00:37:34;15.10;31.40
4308;DHT22;2167;53.448;9.984;2022-08-21T00:39:59;15.10;31.90
4308;DHT22;2167;53.448;9.984;2022-08-21T00:42:26;15.10;30.60
4308;DHT22;2167;53.448;9.984;2022-08-21T00:44:53;15.20;30.40
4308;DHT22;2167;53.448;9.984;2022-08-21T00:47:19;15.20;30.00
4308;DHT22;2167;53.448;9.984;2022-08-21T00:49:45;15.20;28.90
4308;DHT22;2167;53.448;9.984;2022-08-21T00:52:15;15.20;28.70
4308;DHT22;2167;53.448;9.984;2022-08-21T00:54:43;15.10;28.90
4308;DHT22;2167;53.448;9.984;2022-08-21T00:57:14;15.00;29.20
4308;DHT22;2167;53.448;9.984;2022-08-21T00:59:43;14.90;29.90
4308;DHT22;2167;53.448;9.984;2022-08-21T01:02:09;14.80;30.10
4308;DHT22;2167;53.448;9.984;2022-08-21T01:04:35;14.80;31.10
4308;DHT22;2167;53.448;9.984;2022-08-21T01:07:02;14.70;31.80
4308;DHT22;2167;53.448;9.984;2022-08-21T01:09:28;14.70;32.30
4308;DHT22;2167;53.448;9.984;2022-08-21T01:11:54;14.80;33.90
4308;DHT22;2167;53.448;9.984;2022-08-21T01:14:19;14.80;32.80
4308;DHT22;2167;53.448;9.984;2022-08-21T01:16:48;14.80;31.60
4308;DHT22;2167;53.448;9.984;2022-08-21T01:19:15;14.90;30.10
4308;DHT22;2167;53.448;9.984;2022-08-21T01:21:42;14.90;29.90
4308;DHT22;2167;53.448;9.984;2022-08-21T01:24:08;14.80;29.70
4308;DHT22;2167;53.448;9.984;2022-08-21T01:26:35;14.80;30.50
4308;DHT22;2167;53.448;9.984;2022-08-21T01:29:16;14.70;30.80
4308;DHT22;2167;53.448;9.984;2022-08-21T01:31:45;14.70;31.20
4308;DHT22;2167;53.448;9.984;2022-08-21T01:34:11;14.60;31.50
4308;DHT22;2167;53.448;9.984;2022-08-21T01:36:37;14.50;32.10
4308;DHT22;2167;53.448;9.984;2022-08-21T01:39:04;14.50;32.60
4308;DHT22;2167;53.448;9.984;2022-08-21T01:41:30;14.50;32.80
4308;DHT22;2167;53.448;9.984;2022-08-21T01:43:55;14.50;33.20
4308;DHT22;2167;53.448;9.984;2022-08-21T01:46:21;14.40;33.50
4308;DHT22;2167;53.448;9.984;2022-08-21T01:48:47;14.40;33.90
4308;DHT22;2167;53.448;9.984;2022-08-21T01:51:12;14.30;34.20
4308;DHT22;2167;53.448;9.984;2022-08-21T01:53:38;14.30;34.30
4308;DHT22;2167;53.448;9.984;2022-08-21T01:56:06;14.40;35.00
4308;DHT22;2167;53.448;9.984;2022-08-21T01:58:33;14.40;33.80
4308;DHT22;2167;53.448;9.984;2022-08-21T02:01:00;14.40;33.20
4308;DHT22;2167;53.448;9.984;2022-08-21T02:03:28;14.40;32.90
4308;DHT22;2167;53.448;9.984;2022-08-21T02:05:53;14.40;33.90
4308;DHT22;2167;53.448;9.984;2022-08-21T02:08:19;14.50;33.60
4308;DHT22;2167;53.448;9.984;2022-08-21T02:10:49;14.50;33.10
4308;DHT22;2167;53.448;9.984;2022-08-21T02:13:16;14.50;32.40
4308;DHT22;2167;53.448;9.984;2022-08-21T02:15:42;14.50;32.60
4308;DHT22;2167;53.448;9.984;2022-08-21T02:18:07;14.50;32.40
4308;DHT22;2167;53.448;9.984;2022-08-21T02:20:36;14.50;31.90
4308;DHT22;2167;53.448;9.984;2022-08-21T02:23:03;14.50;31.40
4308;DHT22;2167;53.448;9.984;2022-08-21T02:25:30;14.40;31.70
4308;DHT22;2167;53.448;9.984;2022-08-21T02:27:56;14.40;32.20
4308;DHT22;2167;53.448;9.984;2022-08-21T02:30:29;14.30;32.00
4308;DHT22;2167;53.448;9.984;2022-08-21T02:32:55;14.30;31.80
4308;DHT22;2167;53.448;9.984;2022-08-21T02:35:21;14.30;32.70
4308;DHT22;2167;53.448;9.984;2022-08-21T02:37:49;14.30;32.80
4308;DHT22;2167;53.448;9.984;2022-08-21T02:40:19;14.30;32.50
4308;DHT22;2167;53.448;9.984;2022-08-21T02:42:44;14.30;32.50
4308;DHT22;2167;53.448;9.984;2022-08-21T02:45:12;14.30;32.70
4308;DHT22;2167;53.448;9.984;2022-08-21T02:47:38;14.30;31.70
4308;DHT22;2167;53.448;9.984;2022-08-21T02:50:05;14.30;31.50
4308;DHT22;2167;53.448;9.984;2022-08-21T02:52:31;14.30;31.80
4308;DHT22;2167;53.448;9.984;2022-08-21T02:54:56;14.30;32.90
4308;DHT22;2167;53.448;9.984;2022-08-21T02:57:22;14.30;32.60
4308;DHT22;2167;53.448;9.984;2022-08-21T02:59:47;14.30;31.00
4308;DHT22;2167;53.448;9.984;2022-08-21T03:02:13;14.30;31.50
4308;DHT22;2167;53.448;9.984;2022-08-21T03:04:40;14.20;32.10
4308;DHT22;2167;53.448;9.984;2022-08-21T03:07:05;14.10;33.60
4308;DHT22;2167;53.448;9.984;2022-08-21T03:09:31;14.20;33.60
4308;DHT22;2167;53.448;9.984;2022-08-21T03:11:57;14.20;32.60
4308;DHT22;2167;53.448;9.984;2022-08-21T03:14:23;14.10;32.00
4308;DHT22;2167;53.448;9.984;2022-08-21T03:16:48;14.10;32.30
4308;DHT22;2167;53.448;9.984;2022-08-21T03:19:15;14.10;31.70
4308;DHT22;2167;53.448;9.984;2022-08-21T03:21:41;14.00;32.40
4308;DHT22;2167;53.448;9.984;2022-08-21T03:24:06;14.00;32.90
4308;DHT22;2167;53.448;9.984;2022-08-21T03:26:32;14.00;33.00
4308;DHT22;2167;53.448;9.984;2022-08-21T03:28:58;13.90;33.80
4308;DHT22;2167;53.448;9.984;2022-08-21T03:31:24;13.90;34.80
4308;DHT22;2167;53.448;9.984;2022-08-21T03:33:54;13.80;35.10
4308;DHT22;2167;53.448;9.984;2022-08-21T03:36:21;13.80;35.20
4308;DHT22;2167;53.448;9.984;2022-08-21T03:38:46;13.80;35.20
4308;DHT22;2167;53.448;9.984;2022-08-21T03:41:12;13.80;35.10
4308;DHT22;2167;53.448;9.984;2022-08-21T03:43:38;13.70;35.70
4308;DHT22;2167;53.448;9.984;2022-08-21T03:46:04;13.70;35.40
4308;DHT22;2167;53.448;9.984;2022-08-21T03:48:31;13.80;35.40
4308;DHT22;2167;53.448;9.984;2022-08-21T03:50:57;13.70;35.20
4308;DHT22;2167;53.448;9.984;2022-08-21T03:53:23;13.60;35.40
4308;DHT22;2167;53.448;9.984;2022-08-21T03:55:51;13.70;35.60
4308;DHT22;2167;53.448;9.984;2022-08-21T03:58:21;13.60;35.50
4308;DHT22;2167;53.448;9.984;2022-08-21T04:00:51;13.60;35.60
4308;DHT22;2167;53.448;9.984;2022-08-21T04:03:18;13.60;35.70
4308;DHT22;2167;53.448;9.984;2022-08-21T04:05:43;13.60;35.80
4308;DHT22;2167;53.448;9.984;2022-08-21T04:08:15;13.60;36.00
4308;DHT22;2167;53.448;9.984;2022-08-21T04:10:41;13.60;36.30
4308;DHT22;2167;53.448;9.984;2022-08-21T04:13:08;13.60;36.60
4308;DHT22;2167;53.448;9.984;2022-08-21T04:15:34;13.60;36.60
4308;DHT22;2167;53.448;9.984;2022-08-21T04:18:00;13.60;35.90
4308;DHT22;2167;53.448;9.984;2022-08-21T04:20:27;13.60;34.80
4308;DHT22;2167;53.448;9.984;2022-08-21T04:22:53;13.60;34.40
4308;DHT22;2167;53.448;9.984;2022-08-21T04:25:21;13.50;34.30
4308;DHT22;2167;53.448;9.984;2022-08-21T04:27:47;13.50;35.30
4308;DHT22;2167;53.448;9.984;2022-08-21T04:30:14;13.60;36.00
4308;DHT22;2167;53.448;9.984;2022-08-21T04:32:51;13.60;35.70
4308;DHT22;2167;53.448;9.984;2022-08-21T04:35:21;13.60;35.10
4308;DHT22;2167;53.448;9.984;2022-08-21T04:37:47;13.60;35.80
4308;DHT22;2167;53.448;9.984;2022-08-21T04:40:15;13.60;35.80
4308;DHT22;2167;53.448;9.984;2022-08-21T04:42:54;13.60;35.20
4308;DHT22;2167;53.448;9.984;2022-08-21T04:47:50;13.60;35.70
4308;DHT22;2167;53.448;9.984;2022-08-21T04:50:16;13.60;35.80
4308;DHT22;2167;53.448;9.984;2022-08-21T04:52:42;13.60;35.90
4308;DHT22;2167;53.448;9.984;2022-08-21T04:55:09;13.70;36.50
4308;DHT22;2167;53.448;9.984;2022-08-21T04:57:34;13.70;37.10
4308;DHT22;2167;53.448;9.984;2022-08-21T05:00:01;13.70;37.60
4308;DHT22;2167;53.448;9.984;2022-08-21T05:02:28;13.80;38.30
4308;DHT22;2167;53.448;9.984;2022-08-21T05:04:54;13.90;38.90
4308;DHT22;2167;53.448;9.984;2022-08-21T05:07:23;14.00;39.40
4308;DHT22;2167;53.448;9.984;2022-08-21T05:09:50;14.20;39.60
4308;DHT22;2167;53.448;9.984;2022-08-21T05:12:17;14.30;39.90
4308;DHT22;2167;53.448;9.984;2022-08-21T05:14:43;14.40;40.10
4308;DHT22;2167;53.448;9.984;2022-08-21T05:17:09;14.60;40.00
4308;DHT22;2167;53.448;9.984;2022-08-21T05:19:35;14.60;39.70
4308;DHT22;2167;53.448;9.984;2022-08-21T05:22:01;14.80;38.90
4308;DHT22;2167;53.448;9.984;2022-08-21T05:24:27;14.80;37.80
4308;DHT22;2167;53.448;9.984;2022-08-21T05:26:53;15.00;37.20
4308;DHT22;2167;53.448;9.984;2022-08-21T05:29:19;15.10;36.60
4308;DHT22;2167;53.448;9.984;2022-08-21T05:31:46;15.20;35.90
4308;DHT22;2167;53.448;9.984;2022-08-21T05:34:13;15.20;34.90
4308;DHT22;2167;53.448;9.984;2022-08-21T05:36:39;15.40;34.10
4308;DHT22;2167;53.448;9.984;2022-08-21T05:39:05;15.40;33.60
4308;DHT22;2167;53.448;9.984;2022-08-21T05:41:31;15.50;33.10
4308;DHT22;2167;53.448;9.984;2022-08-21T05:43:56;15.50;32.40
4308;DHT22;2167;53.448;9.984;2022-08-21T05:46:22;15.60;31.80
4308;DHT22;2167;53.448;9.984;2022-08-21T05:48:48;15.60;31.00
4308;DHT22;2167;53.448;9.984;2022-08-21T05:51:15;15.70;30.60
4308;DHT22;2167;53.448;9.984;2022-08-21T05:53:42;15.80;30.40
4308;DHT22;2167;53.448;9.984;2022-08-21T05:56:08;15.80;30.10
4308;DHT22;2167;53.448;9.984;2022-08-21T05:58:34;15.90;30.00
4308;DHT22;2167;53.448;9.984;2022-08-21T06:01:01;15.90;29.70
4308;DHT22;2167;53.448;9.984;2022-08-21T06:03:36;16.00;29.40
4308;DHT22;2167;53.448;9.984;2022-08-21T06:06:02;16.10;29.50
4308;DHT22;2167;53.448;9.984;2022-08-21T06:08:28;16.10;29.20
4308;DHT22;2167;53.448;9.984;2022-08-21T06:10:56;16.20;28.90
4308;DHT22;2167;53.448;9.984;2022-08-21T06:13:23;16.20;28.70
4308;DHT22;2167;53.448;9.984;2022-08-21T06:15:50;16.40;28.80
4308;DHT22;2167;53.448;9.984;2022-08-21T06:18:25;16.40;28.50
4308;DHT22;2167;53.448;9.984;2022-08-21T06:20:51;16.40;28.30
4308;DHT22;2167;53.448;9.984;2022-08-21T06:23:16;16.50;28.10
4308;DHT22;2167;53.448;9.984;2022-08-21T06:25:42;16.50;27.90
4308;DHT22;2167;53.448;9.984;2022-08-21T06:28:09;16.60;27.40
4308;DHT22;2167;53.448;9.984;2022-08-21T06:30:36;16.60;26.90
4308;DHT22;2167;53.448;9.984;2022-08-21T06:33:03;16.70;27.00
4308;DHT22;2167;53.448;9.984;2022-08-21T06:35:29;16.80;26.70
4308;DHT22;2167;53.448;9.984;2022-08-21T06:37:58;16.90;26.40
4308;DHT22;2167;53.448;9.984;2022-08-21T06:40:25;16.90;25.70
4308;DHT22;2167;53.448;9.984;2022-08-21T06:42:51;17.00;25.30
4308;DHT22;2167;53.448;9.984;2022-08-21T06:45:16;17.10;25.20
4308;DHT22;2167;53.448;9.984;2022-08-21T06:47:42;17.10;24.60
4308;DHT22;2167;53.448;9.984;2022-08-21T06:50:08;17.20;23.90
4308;DHT22;2167;53.448;9.984;2022-08-21T06:52:35;17.30;24.60
4308;DHT22;2167;53.448;9.984;2022-08-21T06:55:01;17.40;24.20
4308;DHT22;2167;53.448;9.984;2022-08-21T06:57:27;17.40;19.80
4308;DHT22;2167;53.448;9.984;2022-08-21T06:59:53;17.40;19.70
4308;DHT22;2167;53.448;9.984;2022-08-21T07:02:19;17.40;19.20
4308;DHT22;2167;53.448;9.984;2022-08-21T07:04:44;17.40;18.40
4308;DHT22;2167;53.448;9.984;2022-08-21T07:07:10;17.40;21.50
4308;DHT22;2167;53.448;9.984;2022-08-21T07:09:35;17.40;23.00
4308;DHT22;2167;53.448;9.984;2022-08-21T07:12:02;17.40;22.90
4308;DHT22;2167;53.448;9.984;2022-08-21T07:14:27;17.50;23.80
4308;DHT22;2167;53.448;9.984;2022-08-21T07:16:53;17.50;24.50
4308;DHT22;2167;53.448;9.984;2022-08-21T07:19:19;17.60;23.80
4308;DHT22;2167;53.448;9.984;2022-08-21T07:21:45;17.60;23.80
4308;DHT22;2167;53.448;9.984;2022-08-21T07:24:12;17.70;23.70
4308;DHT22;2167;53.448;9.984;2022-08-21T07:26:37;17.90;22.80
4308;DHT22;2167;53.448;9.984;2022-08-21T07:29:03;18.00;20.10
4308;DHT22;2167;53.448;9.984;2022-08-21T07:31:29;18.10;16.90
4308;DHT22;2167;53.448;9.984;2022-08-21T07:33:55;18.20;17.30
4308;DHT22;2167;53.448;9.984;2022-08-21T07:36:20;18.30;15.40
4308;DHT22;2167;53.448;9.984;2022-08-21T07:38:46;18.40;15.00
4308;DHT22;2167;53.448;9.984;2022-08-21T07:41:17;18.50;16.10
4308;DHT22;2167;53.448;9.984;2022-08-21T07:43:44;18.60;14.20
4308;DHT22;2167;53.448;9.984;2022-08-21T07:46:10;18.80;16.00
4308;DHT22;2167;53.448;9.984;2022-08-21T07:48:36;18.90;14.80
4308;DHT22;2167;53.448;9.984;2022-08-21T07:51:09;18.90;12.60
4308;DHT22;2167;53.448;9.984;2022-08-21T07:53:36;19.00;13.50
4308;DHT22;2167;53.448;9.984;2022-08-21T07:56:02;19.30;13.00
4308;DHT22;2167;53.448;9.984;2022-08-21T07:58:30;19.40;8.10
4308;DHT22;2167;53.448;9.984;2022-08-21T08:00:55;19.60;5.50
4308;DHT22;2167;53.448;9.984;2022-08-21T08:03:21;19.70;6.60
4308;DHT22;2167;53.448;9.984;2022-08-21T08:05:46;20.00;5.80
4308;DHT22;2167;53.448;9.984;2022-08-21T08:08:12;20.10;3.00
4308;DHT22;2167;53.448;9.984;2022-08-21T08:10:38;20.40;1.00
4308;DHT22;2167;53.448;9.984;2022-08-21T08:13:04;20.40;1.00
4308;DHT22;2167;53.448;9.984;2022-08-21T08:15:30;20.50;1.00
4308;DHT22;2167;53.448;9.984;2022-08-21T08:17:56;20.50;1.00
4308;DHT22;2167;53.448;9.984;2022-08-21T08:20:24;20.60;1.00
4308;DHT22;2167;53.448;9.984;2022-08-21T08:22:52;20.70;1.00
4308;DHT22;2167;53.448;9.984;2022-08-21T08:25:19;20.80;1.00
4308;DHT22;2167;53.448;9.984;2022-08-21T08:27:45;21.00;1.00
4308;DHT22;2167;53.448;9.984;2022-08-21T08:30:13;21.30;1.00
4308;DHT22;2167;53.448;9.984;2022-08-21T08:32:39;21.60;1.00
4308;DHT22;2167;53.448;9.984;2022-08-21T08:35:06;21.80;1.00
4308;DHT22;2167;53.448;9.984;2022-08-21T08:37:33;22.00;1.00
4308;DHT22;2167;53.448;9.984;2022-08-21T08:39:58;22.30;1.00
4308;DHT22;2167;53.448;9.984;2022-08-21T08:42:30;22.40;1.00
4308;DHT22;2167;53.448;9.984;2022-08-21T08:45:20;22.60;1.00
4308;DHT22;2167;53.448;9.984;2022-08-21T08:47:55;22.80;1.00
4308;DHT22;2167;53.448;9.984;2022-08-21T08:50:47;23.10;1.00
4308;DHT22;2167;53.448;9.984;2022-08-21T08:53:24;23.40;1.00
4308;DHT22;2167;53.448;9.984;2022-08-21T08:55:52;23.60;1.00
4308;DHT22;2167;53.448;9.984;2022-08-21T08:58:24;23.70;1.00
4308;DHT22;2167;53.448;9.984;2022-08-21T09:00:52;23.90;1.00
4308;DHT22;2167;53.448;9.984;2022-08-21T09:03:21;24.00;1.00
4308;DHT22;2167;53.448;9.984;2022-08-21T09:06:06;24.10;1.00
4308;DHT22;2167;53.448;9.984;2022-08-21T09:11:29;24.20;1.00
4308;DHT22;2167;53.448;9.984;2022-08-21T09:14:19;24.50;1.00
4308;DHT22;2167;53.448;9.984;2022-08-21T09:16:52;24.80;1.00
4308;DHT22;2167;53.448;9.984;2022-08-21T09:19:45;25.10;1.00
4308;DHT22;2167;53.448;9.984;2022-08-21T09:22:39;25.50;1.00
4308;DHT22;2167;53.448;9.984;2022-08-21T09:25:19;25.70;1.00
4308;DHT22;2167;53.448;9.984;2022-08-21T09:27:46;25.70;1.00
4308;DHT22;2167;53.448;9.984;2022-08-21T09:30:17;25.60;1.00
4308;DHT22;2167;53.448;9.984;2022-08-21T09:32:45;25.50;1.00
4308;DHT22;2167;53.448;9.984;2022-08-21T09:35:19;25.50;1.00
4308;DHT22;2167;53.448;9.984;2022-08-21T09:38:01;25.70;1.00
4308;DHT22;2167;53.448;9.984;2022-08-21T09:40:40;25.90;1.00
4308;DHT22;2167;53.448;9.984;2022-08-21T09:45:39;25.90;1.00
4308;DHT22;2167;53.448;9.984;2022-08-21T09:48:22;26.10;1.00
4308;DHT22;2167;53.448;9.984;2022-08-21T09:50:49;26.30;1.00
4308;DHT22;2167;53.448;9.984;2022-08-21T09:53:21;26.30;1.00
4308;DHT22;2167;53.448;9.984;2022-08-21T09:55:53;26.20;1.00
4308;DHT22;2167;53.448;9.984;2022-08-21T09:58:40;26.20;1.00
4308;DHT22;2167;53.448;9.984;2022-08-21T10:01:11;26.10;1.00
4308;DHT22;2167;53.448;9.984;2022-08-21T10:03:37;25.80;1.00
4308;DHT22;2167;53.448;9.984;2022-08-21T10:06:06;25.50;1.00
4308;DHT22;2167;53.448;9.984;2022-08-21T10:08:35;25.40;1.00
4308;DHT22;2167;53.448;9.984;2022-08-21T10:11:10;25.10;1.00
4308;DHT22;2167;53.448;9.984;2022-08-21T10:16:37;24.80;1.00
4308;DHT22;2167;53.448;9.984;2022-08-21T10:21:53;25.00;1.00
4308;DHT22;2167;53.448;9.984;2022-08-21T10:24:25;25.20;1.00
4308;DHT22;2167;53.448;9.984;2022-08-21T10:27:18;25.50;1.00
4308;DHT22;2167;53.448;9.984;2022-08-21T10:29:56;25.40;1.00
4308;DHT22;2167;53.448;9.984;2022-08-21T10:41:24;26.30;1.00
4308;DHT22;2167;53.448;9.984;2022-08-21T10:44:25;26.50;1.00
4308;DHT22;2167;53.448;9.984;2022-08-21T10:46:56;26.60;1.00
4308;DHT22;2167;53.448;9.984;2022-08-21T10:50:04;26.60;1.00
4308;DHT22;2167;53.448;9.984;2022-08-21T10:55:44;26.40;1.00
4308;DHT22;2167;53.448;9.984;2022-08-21T10:58:40;26.60;1.00
4308;DHT22;2167;53.448;9.984;2022-08-21T11:01:19;26.60;1.00
4308;DHT22;2167;53.448;9.984;2022-08-21T11:03:53;26.60;1.00
4308;DHT22;2167;53.448;9.984;2022-08-21T11:06:29;26.80;1.00
4308;DHT22;2167;53.448;9.984;2022-08-21T11:09:20;26.80;1.00
4308;DHT22;2167;53.448;9.984;2022-08-21T11:12:06;26.90;1.00
4308;DHT22;2167;53.448;9.984;2022-08-21T11:17:29;27.10;1.00
4308;DHT22;2167;53.448;9.984;2022-08-21T11:20:12;27.20;1.00
4308;DHT22;2167;53.448;9.984;2022-08-21T11:22:54;27.10;1.00
4308;DHT22;2167;53.448;9.984;2022-08-21T11:25:41;27.00;1.00
4308;DHT22;2167;53.448;9.984;2022-08-21T11:28:28;27.00;1.00
4308;DHT22;2167;53.448;9.984;2022-08-21T11:33:57;27.30;1.00
4308;DHT22;2167;53.448;9.984;2022-08-21T11:36:57;27.50;1.00
4308;DHT22;2167;53.448;9.984;2022-08-21T11:47:51;29.00;1.00
4308;DHT22;2167;53.448;9.984;2022-08-21T11:50:26;29.10;1.00
4308;DHT22;2167;53.448;9.984;2022-08-21T11:53:14;29.10;1.00
4308;DHT22;2167;53.448;9.984;2022-08-21T12:00:56;28.60;1.00
4308;DHT22;2167;53.448;9.984;2022-08-21T12:03:28;28.30;1.00
4308;DHT22;2167;53.448;9.984;2022-08-21T12:06:10;28.30;1.00
4308;DHT22;2167;53.448;9.984;2022-08-21T12:08:40;28.40;1.00
4308;DHT22;2167;53.448;9.984;2022-08-21T12:11:20;28.40;1.00
4308;DHT22;2167;53.448;9.984;2022-08-21T12:14:00;28.50;1.00
4308;DHT22;2167;53.448;9.984;2022-08-21T12:16:39;28.20;1.00
4308;DHT22;2167;53.448;9.984;2022-08-21T12:19:14;28.00;1.00
4308;DHT22;2167;53.448;9.984;2022-08-21T12:24:39;27.50;1.00
4308;DHT22;2167;53.448;9.984;2022-08-21T12:27:28;27.60;1.00
4308;DHT22;2167;53.448;9.984;2022-08-21T12:29:59;27.60;1.00
4308;DHT22;2167;53.448;9.984;2022-08-21T12:35:00;27.50;1.00
4308;DHT22;2167;53.448;9.984;2022-08-21T12:37:43;27.20;1.00
4308;DHT22;2167;53.448;9.984;2022-08-21T12:40:23;27.10;1.00
4308;DHT22;2167;53.448;9.984;2022-08-21T12:42:53;27.00;1.00
4308;DHT22;2167;53.448;9.984;2022-08-21T12:45:26;26.80;1.00
4308;DHT22;2167;53.448;9.984;2022-08-21T12:50:50;27.10;1.00
4308;DHT22;2167;53.448;9.984;2022-08-21T12:56:10;27.90;1.00
4308;DHT22;2167;53.448;9.984;2022-08-21T12:58:39;28.00;1.00
4308;DHT22;2167;53.448;9.984;2022-08-21T13:01:21;28.00;1.00
4308;DHT22;2167;53.448;9.984;2022-08-21T13:03:49;28.20;1.00
4308;DHT22;2167;53.448;9.984;2022-08-21T13:06:17;28.30;1.00
4308;DHT22;2167;53.448;9.984;2022-08-21T13:08:45;28.60;1.00
4308;DHT22;2167;53.448;9.984;2022-08-21T13:11:15;28.80;1.00
4308;DHT22;2167;53.448;9.984;2022-08-21T13:13:42;29.20;1.00
4308;DHT22;2167;53.448;9.984;2022-08-21T13:16:09;29.40;1.00
4308;DHT22;2167;53.448;9.984;2022-08-21T13:18:51;29.10;1.00
4308;DHT22;2167;53.448;9.984;2022-08-21T13:21:17;29.10;1.00
4308;DHT22;2167;53.448;9.984;2022-08-21T13:23:42;29.00;1.00
4308;DHT22;2167;53.448;9.984;2022-08-21T13:26:20;28.80;1.00
4308;DHT22;2167;53.448;9.984;2022-08-21T13:28:46;28.60;1.00
4308;DHT22;2167;53.448;9.984;2022-08-21T13:31:20;28.40;1.00
4308;DHT22;2167;53.448;9.984;2022-08-21T13:33:48;28.10;1.00
4308;DHT22;2167;53.448;9.984;2022-08-21T13:36:18;27.90;1.00
4308;DHT22;2167;53.448;9.984;2022-08-21T13:38:46;27.70;1.00
4308;DHT22;2167;53.448;9.984;2022-08-21T13:41:27;27.50;1.00
4308;DHT22;2167;53.448;9.984;2022-08-21T13:44:02;27.20;1.00
4308;DHT22;2167;53.448;9.984;2022-08-21T13:46:31;27.10;1.00
4308;DHT22;2167;53.448;9.984;2022-08-21T13:48:59;27.10;1.00
4308;DHT22;2167;53.448;9.984;2022-08-21T13:51:26;27.20;1.00
4308;DHT22;2167;53.448;9.984;2022-08-21T13:53:52;27.20;1.00
4308;DHT22;2167;53.448;9.984;2022-08-21T13:57:00;27.10;1.00
4308;DHT22;2167;53.448;9.984;2022-08-21T13:59:28;26.90;1.00
4308;DHT22;2167;53.448;9.984;2022-08-21T14:01:57;26.80;1.00
4308;DHT22;2167;53.448;9.984;2022-08-21T14:04:31;26.70;1.00
4308;DHT22;2167;53.448;9.984;2022-08-21T14:06:57;26.80;1.00
4308;DHT22;2167;53.448;9.984;2022-08-21T14:09:39;26.80;1.00
4308;DHT22;2167;53.448;9.984;2022-08-21T14:12:23;26.80;1.00
4308;DHT22;2167;53.448;9.984;2022-08-21T14:14:50;26.80;1.00
4308;DHT22;2167;53.448;9.984;2022-08-21T14:17:35;26.90;1.00
4308;DHT22;2167;53.448;9.984;2022-08-21T14:20:03;27.00;1.00
4308;DHT22;2167;53.448;9.984;2022-08-21T14:22:45;27.00;1.00
4308;DHT22;2167;53.448;9.984;2022-08-21T14:27:51;27.00;1.00
4308;DHT22;2167;53.448;9.984;2022-08-21T14:30:25;27.10;1.00
4308;DHT22;2167;53.448;9.984;2022-08-21T14:32:52;27.30;1.00
4308;DHT22;2167;53.448;9.984;2022-08-21T14:35:17;27.30;1.00
4308;DHT22;2167;53.448;9.984;2022-08-21T14:37:44;27.20;1.00
4308;DHT22;2167;53.448;9.984;2022-08-21T14:40:11;27.10;1.00
4308;DHT22;2167;53.448;9.984;2022-08-21T14:42:37;26.90;1.00
4308;DHT22;2167;53.448;9.984;2022-08-21T14:47:46;26.60;1.00
4308;DHT22;2167;53.448;9.984;2022-08-21T14:50:13;26.60;1.00
4308;DHT22;2167;53.448;9.984;2022-08-21T14:52:39;26.60;1.00
4308;DHT22;2167;53.448;9.984;2022-08-21T14:55:07;26.60;1.00
4308;DHT22;2167;53.448;9.984;2022-08-21T14:57:33;26.90;1.00
4308;DHT22;2167;53.448;9.984;2022-08-21T15:00:00;27.30;1.00
4308;DHT22;2167;53.448;9.984;2022-08-21T15:02:26;27.80;1.00
4308;DHT22;2167;53.448;9.984;2022-08-21T15:04:52;28.10;1.00
4308;DHT22;2167;53.448;9.984;2022-08-21T15:07:17;28.30;1.00
4308;DHT22;2167;53.448;9.984;2022-08-21T15:09:43;28.50;1.00
4308;DHT22;2167;53.448;9.984;2022-08-21T15:12:09;28.50;1.00
4308;DHT22;2167;53.448;9.984;2022-08-21T15:14:38;28.20;1.00
4308;DHT22;2167;53.448;9.984;2022-08-21T15:17:07;27.90;1.00
4308;DHT22;2167;53.448;9.984;2022-08-21T15:19:33;27.70;1.00
4308;DHT22;2167;53.448;9.984;2022-08-21T15:21:59;27.60;1.00
4308;DHT22;2167;53.448;9.984;2022-08-21T15:24:25;27.60;1.00
4308;DHT22;2167;53.448;9.984;2022-08-21T15:26:52;27.60;1.00
4308;DHT22;2167;53.448;9.984;2022-08-21T15:29:19;27.80;1.00
4308;DHT22;2167;53.448;9.984;2022-08-21T15:31:57;27.80;1.00
4308;DHT22;2167;53.448;9.984;2022-08-21T15:34:25;27.80;1.00
4308;DHT22;2167;53.448;9.984;2022-08-21T15:36:51;27.90;1.00
4308;DHT22;2167;53.448;9.984;2022-08-21T15:39:16;28.00;1.00
4308;DHT22;2167;53.448;9.984;2022-08-21T15:41:43;28.20;1.00
4308;DHT22;2167;53.448;9.984;2022-08-21T15:44:10;28.60;1.00
4308;DHT22;2167;53.448;9.984;2022-08-21T15:46:37;28.70;1.00
4308;DHT22;2167;53.448;9.984;2022-08-21T15:49:03;28.90;1.00
4308;DHT22;2167;53.448;9.984;2022-08-21T15:51:29;28.70;1.00
4308;DHT22;2167;53.448;9.984;2022-08-21T15:53:55;28.60;1.00
4308;DHT22;2167;53.448;9.984;2022-08-21T15:56:26;28.50;1.00
4308;DHT22;2167;53.448;9.984;2022-08-21T15:58:58;28.40;1.00
4308;DHT22;2167;53.448;9.984;2022-08-21T16:01:24;28.50;1.00
4308;DHT22;2167;53.448;9.984;2022-08-21T16:03:52;28.70;1.00
4308;DHT22;2167;53.448;9.984;2022-08-21T16:06:18;28.80;1.00
4308;DHT22;2167;53.448;9.984;2022-08-21T16:08:44;28.80;1.00
4308;DHT22;2167;53.448;9.984;2022-08-21T16:11:11;28.90;1.00
4308;DHT22;2167;53.448;9.984;2022-08-21T16:13:40;28.90;1.00
4308;DHT22;2167;53.448;9.984;2022-08-21T16:16:09;28.90;1.00
4308;DHT22;2167;53.448;9.984;2022-08-21T16:18:35;28.70;1.00
4308;DHT22;2167;53.448;9.984;2022-08-21T16:21:00;28.30;1.00
4308;DHT22;2167;53.448;9.984;2022-08-21T16:23:26;28.10;1.00
4308;DHT22;2167;53.448;9.984;2022-08-21T16:25:52;27.90;1.00
4308;DHT22;2167;53.448;9.984;2022-08-21T16:28:18;27.80;1.00
4308;DHT22;2167;53.448;9.984;2022-08-21T16:30:47;27.80;1.00
4308;DHT22;2167;53.448;9.984;2022-08-21T16:35:49;27.50;1.00
4308;DHT22;2167;53.448;9.984;2022-08-21T16:38:15;27.10;1.00
4308;DHT22;2167;53.448;9.984;2022-08-21T16:40:43;26.80;1.00
4308;DHT22;2167;53.448;9.984;2022-08-21T16:43:09;26.60;1.00
4308;DHT22;2167;53.448;9.984;2022-08-21T16:45:35;26.50;1.00
4308;DHT22;2167;53.448;9.984;2022-08-21T16:48:01;26.40;1.00
4308;DHT22;2167;53.448;9.984;2022-08-21T16:50:28;26.20;1.00
4308;DHT22;2167;53.448;9.984;2022-08-21T16:52:54;26.10;1.00
4308;DHT22;2167;53.448;9.984;2022-08-21T16:55:20;25.90;1.00
4308;DHT22;2167;53.448;9.984;2022-08-21T16:57:45;25.90;1.00
4308;DHT22;2167;53.448;9.984;2022-08-21T17:00:11;25.80;1.00
4308;DHT22;2167;53.448;9.984;2022-08-21T17:02:43;25.70;1.00
4308;DHT22;2167;53.448;9.984;2022-08-21T17:05:09;25.60;1.00
4308;DHT22;2167;53.448;9.984;2022-08-21T17:07:36;25.60;1.00
4308;DHT22;2167;53.448;9.984;2022-08-21T17:10:03;25.50;1.00
4308;DHT22;2167;53.448;9.984;2022-08-21T17:12:28;25.40;1.00
4308;DHT22;2167;53.448;9.984;2022-08-21T17:14:56;25.40;1.00
4308;DHT22;2167;53.448;9.984;2022-08-21T17:17:25;25.30;1.00
4308;DHT22;2167;53.448;9.984;2022-08-21T17:19:53;25.20;1.00
4308;DHT22;2167;53.448;9.984;2022-08-21T17:22:18;25.20;1.00
4308;DHT22;2167;53.448;9.984;2022-08-21T17:24:44;25.10;1.00
4308;DHT22;2167;53.448;9.984;2022-08-21T17:27:09;25.00;1.00